createdAt,value
2023-11-24T00:01:44.944Z,100.00
2023-11-24T00:04:12.585Z,100.00
2023-11-24T00:06:40.304Z,100.00
2023-11-24T00:09:09.296Z,100.00
2023-11-24T00:11:36.951Z,100.00
2023-11-24T00:14:05.788Z,100.00
2023-11-24T00:16:33.411Z,100.00
2023-11-24T00:19:01.087Z,100.00
2023-11-24T00:21:28.984Z,100.00
2023-11-24T00:23:56.599Z,100.00
2023-11-24T00:26:27.348Z,100.00
2023-11-24T00:29:02.107Z,100.00
2023-11-24T00:31:30.167Z,100.00
2023-11-24T00:33:58.014Z,100.00
2023-11-24T00:36:26.121Z,100.00
2023-11-24T00:38:53.996Z,100.00
2023-11-24T00:41:24.045Z,100.00
2023-11-24T00:43:53.060Z,100.00
2023-11-24T00:46:20.668Z,100.00
2023-11-24T00:48:48.488Z,100.00
2023-11-24T00:51:16.691Z,100.00
2023-11-24T00:53:44.387Z,100.00
2023-11-24T00:56:12.616Z,100.00
2023-11-24T00:58:44.846Z,100.00
2023-11-24T01:01:13.856Z,100.00
2023-11-24T01:03:41.750Z,100.00
2023-11-24T01:06:09.733Z,100.00
2023-11-24T01:08:37.575Z,100.00
2023-11-24T01:11:05.207Z,100.00
2023-11-24T01:13:34.825Z,100.00
2023-11-24T01:16:03.666Z,100.00
2023-11-24T01:18:34.917Z,100.00
2023-11-24T01:21:02.593Z,100.00
2023-11-24T01:23:30.957Z,100.00
2023-11-24T01:25:58.599Z,100.00
2023-11-24T01:28:27.739Z,100.00
2023-11-24T01:30:57.871Z,100.00
2023-11-24T01:33:25.958Z,100.00
2023-11-24T01:35:57.064Z,100.00
2023-11-24T01:38:25.125Z,100.00
2023-11-24T01:40:52.856Z,100.00
2023-11-24T01:43:20.568Z,100.00
2023-11-24T01:45:49.108Z,100.00
2023-11-24T01:48:19.180Z,100.00
2023-11-24T01:50:47.360Z,100.00
2023-11-24T01:53:16.484Z,100.00
2023-11-24T01:55:44.245Z,100.00
2023-11-24T01:58:12.118Z,100.00
2023-11-24T02:00:40.569Z,100.00
2023-11-24T02:03:08.337Z,100.00
2023-11-24T02:05:38.404Z,100.00
2023-11-24T02:08:07.647Z,100.00
2023-11-24T02:10:37.033Z,100.00
2023-11-24T02:13:04.799Z,100.00
2023-11-24T02:15:32.470Z,100.00
2023-11-24T02:18:00.280Z,100.00
2023-11-24T02:20:28.620Z,100.00
2023-11-24T02:22:57.587Z,100.00
2023-11-24T02:25:26.703Z,100.00
2023-11-24T02:27:54.328Z,100.00
2023-11-24T02:30:22.049Z,100.00
2023-11-24T02:32:50.252Z,100.00
2023-11-24T02:35:18.095Z,100.00
2023-11-24T02:37:45.697Z,100.00
2023-11-24T02:44:21.800Z,100.00
2023-11-24T02:46:49.391Z,100.00
2023-11-24T02:49:17.950Z,100.00
2023-11-24T02:51:45.959Z,100.00
2023-11-24T02:54:13.562Z,100.00
2023-11-24T02:56:41.150Z,100.00
2023-11-24T02:59:08.763Z,100.00
2023-11-24T03:01:38.289Z,100.00
2023-11-24T03:04:06.620Z,100.00
2023-11-24T03:06:41.623Z,100.00
2023-11-24T03:09:10.433Z,100.00
2023-11-24T03:11:38.176Z,100.00
2023-11-24T03:14:06.300Z,100.00
2023-11-24T03:16:34.845Z,100.00
2023-11-24T03:19:05.378Z,100.00
2023-11-24T03:21:34.174Z,100.00
2023-11-24T03:24:01.961Z,100.00
2023-11-24T03:26:29.715Z,100.00
2023-11-24T03:28:58.501Z,100.00
2023-11-24T03:31:26.132Z,100.00
2023-11-24T03:33:53.838Z,100.00
2023-11-24T03:36:23.951Z,100.00
2023-11-24T03:38:51.644Z,100.00
2023-11-24T03:41:19.316Z,100.00
2023-11-24T03:43:47.668Z,100.00
2023-11-24T03:46:16.131Z,100.00
2023-11-24T03:48:43.929Z,100.00
2023-11-24T03:51:11.767Z,100.00
2023-11-24T03:53:40.783Z,100.00
2023-11-24T03:56:08.876Z,100.00
2023-11-24T03:58:36.532Z,100.00
2023-11-24T04:01:04.307Z,100.00
2023-11-24T04:03:32.084Z,100.00
2023-11-24T04:05:59.762Z,100.00
2023-11-24T04:08:27.368Z,100.00
2023-11-24T04:10:58.919Z,100.00
2023-11-24T04:13:26.853Z,100.00
2023-11-24T04:15:54.992Z,100.00
2023-11-24T04:18:22.651Z,100.00
2023-11-24T04:20:50.252Z,100.00
2023-11-24T04:23:18.413Z,100.00
2023-11-24T04:25:46.038Z,100.00
2023-11-24T04:28:16.473Z,100.00
2023-11-24T04:30:44.377Z,100.00
2023-11-24T04:33:12.029Z,100.00
2023-11-24T04:35:39.819Z,100.00
2023-11-24T04:38:07.712Z,100.00
2023-11-24T04:40:35.304Z,100.00
2023-11-24T04:43:02.989Z,100.00
2023-11-24T04:45:32.195Z,100.00
2023-11-24T04:47:59.976Z,100.00
2023-11-24T04:50:27.701Z,100.00
2023-11-24T04:52:55.413Z,100.00
2023-11-24T04:55:23.011Z,100.00
2023-11-24T04:57:51.890Z,100.00
2023-11-24T05:00:20.207Z,100.00
2023-11-24T05:02:51.236Z,100.00
2023-11-24T05:05:18.939Z,100.00
2023-11-24T05:07:46.558Z,100.00
2023-11-24T05:10:14.221Z,100.00
2023-11-24T05:12:42.015Z,100.00
2023-11-24T05:15:10.288Z,100.00
2023-11-24T05:17:39.545Z,100.00
2023-11-24T05:20:13.386Z,100.00
2023-11-24T05:22:41.266Z,100.00
2023-11-24T05:25:09.895Z,100.00
2023-11-24T05:27:37.657Z,100.00
2023-11-24T05:30:10.023Z,100.00
2023-11-24T05:32:38.596Z,100.00
2023-11-24T05:35:08.413Z,100.00
2023-11-24T05:37:36.008Z,100.00
2023-11-24T05:40:07.857Z,100.00
2023-11-24T05:42:35.642Z,100.00
2023-11-24T05:45:04.360Z,100.00
2023-11-24T05:47:33.079Z,100.00
2023-11-24T05:50:00.736Z,100.00
2023-11-24T05:52:29.610Z,100.00
2023-11-24T05:54:59.435Z,100.00
2023-11-24T05:57:27.185Z,100.00
2023-11-24T05:59:54.936Z,100.00
2023-11-24T06:02:22.940Z,100.00
2023-11-24T06:04:50.890Z,100.00
2023-11-24T06:07:18.914Z,100.00
2023-11-24T06:09:47.935Z,100.00
2023-11-24T06:12:15.618Z,100.00
2023-11-24T06:14:43.340Z,100.00
2023-11-24T06:17:10.960Z,100.00
2023-11-24T06:19:38.613Z,100.00
2023-11-24T06:22:06.367Z,100.00
2023-11-24T06:24:34.078Z,100.00
2023-11-24T06:27:03.028Z,100.00
2023-11-24T06:29:31.612Z,100.00
2023-11-24T06:31:59.257Z,100.00
2023-11-24T06:34:29.058Z,100.00
2023-11-24T06:36:56.712Z,100.00
2023-11-24T06:39:24.275Z,100.00
2023-11-24T06:41:52.390Z,100.00
2023-11-24T06:44:23.687Z,100.00
2023-11-24T06:46:51.309Z,100.00
2023-11-24T06:49:19.138Z,100.00
2023-11-24T06:51:49.476Z,100.00
2023-11-24T06:54:17.088Z,100.00
2023-11-24T06:56:44.916Z,100.00
2023-11-24T06:59:12.547Z,100.00
2023-11-24T07:01:41.537Z,100.00
2023-11-24T07:04:09.360Z,100.00
2023-11-24T07:06:37.142Z,100.00
2023-11-24T07:09:06.117Z,100.00
2023-11-24T07:11:33.743Z,100.00
2023-11-24T07:14:01.345Z,100.00
2023-11-24T07:16:29.226Z,100.00
2023-11-24T07:18:59.365Z,100.00
2023-11-24T07:21:27.012Z,100.00
2023-11-24T07:23:54.632Z,100.00
2023-11-24T07:26:23.091Z,100.00
2023-11-24T07:28:50.792Z,100.00
2023-11-24T07:31:18.810Z,100.00
2023-11-24T07:33:49.764Z,100.00
2023-11-24T07:36:20.053Z,100.00
2023-11-24T07:38:47.862Z,100.00
2023-11-24T07:41:15.677Z,100.00
2023-11-24T07:43:43.420Z,100.00
2023-11-24T07:46:12.271Z,100.00
2023-11-24T07:48:40.201Z,100.00
2023-11-24T07:51:07.829Z,100.00
2023-11-24T07:53:36.778Z,100.00
2023-11-24T07:56:05.302Z,100.00
2023-11-24T07:58:33.019Z,100.00
2023-11-24T08:01:01.847Z,100.00
2023-11-24T08:03:30.679Z,100.00
2023-11-24T08:05:59.236Z,100.00
2023-11-24T08:08:26.941Z,100.00
2023-11-24T08:10:55.869Z,100.00
2023-11-24T08:13:23.696Z,100.00
2023-11-24T08:15:51.299Z,100.00
2023-11-24T08:18:18.891Z,100.00
2023-11-24T08:20:46.524Z,100.00
2023-11-24T08:23:16.652Z,100.00
2023-11-24T08:25:44.828Z,100.00
2023-11-24T08:28:13.859Z,100.00
2023-11-24T08:30:41.714Z,100.00
2023-11-24T08:33:09.344Z,100.00
2023-11-24T08:35:39.590Z,100.00
2023-11-24T08:38:07.474Z,100.00
2023-11-24T08:40:35.080Z,100.00
2023-11-24T08:43:02.860Z,100.00
2023-11-24T08:45:32.527Z,100.00
2023-11-24T08:48:00.142Z,100.00
2023-11-24T08:50:29.391Z,100.00
2023-11-24T08:52:57.101Z,100.00
2023-11-24T08:55:24.733Z,100.00
2023-11-24T08:57:52.637Z,100.00
2023-11-24T09:00:20.719Z,100.00
2023-11-24T09:02:50.428Z,100.00
2023-11-24T09:05:18.261Z,100.00
2023-11-24T09:07:46.472Z,100.00
2023-11-24T09:10:16.088Z,100.00
2023-11-24T09:12:43.824Z,100.00
2023-11-24T09:15:12.593Z,100.00
2023-11-24T09:17:40.191Z,100.00
2023-11-24T09:20:11.508Z,100.00
2023-11-24T09:22:40.013Z,100.00
2023-11-24T09:25:09.820Z,100.00
2023-11-24T09:27:37.513Z,100.00
2023-11-24T09:30:06.683Z,100.00
2023-11-24T09:32:36.504Z,100.00
2023-11-24T09:35:06.033Z,100.00
2023-11-24T09:37:35.168Z,100.00
2023-11-24T09:40:04.783Z,100.00
2023-11-24T09:42:39.145Z,100.00
2023-11-24T09:45:15.943Z,100.00
2023-11-24T09:47:45.319Z,100.00
2023-11-24T09:50:13.668Z,100.00
2023-11-24T09:52:46.340Z,100.00
2023-11-24T09:55:14.438Z,100.00
2023-11-24T09:57:42.271Z,100.00
2023-11-24T10:00:11.540Z,100.00
2023-11-24T10:02:40.425Z,100.00
2023-11-24T10:05:09.619Z,100.00
2023-11-24T10:07:37.372Z,100.00
2023-11-24T10:10:07.682Z,98.95
2023-11-24T10:12:36.405Z,97.46
2023-11-24T10:15:05.421Z,95.70
2023-11-24T10:17:34.588Z,96.28
2023-11-24T10:20:12.046Z,94.00
2023-11-24T10:22:39.734Z,94.49
2023-11-24T10:25:11.875Z,91.81
2023-11-24T10:27:41.184Z,92.85
2023-11-24T10:30:09.804Z,94.09
2023-11-24T10:32:40.680Z,92.42
2023-11-24T10:35:09.173Z,92.52
2023-11-24T10:37:39.049Z,92.60
2023-11-24T10:40:14.845Z,92.42
2023-11-24T10:42:48.686Z,92.79
2023-11-24T10:45:19.935Z,91.97
2023-11-24T10:48:00.586Z,92.44
2023-11-24T10:50:29.949Z,92.47
2023-11-24T10:53:08.491Z,90.83
2023-11-24T10:55:38.950Z,90.59
2023-11-24T10:58:08.038Z,90.98
2023-11-24T11:00:38.083Z,91.27
2023-11-24T11:03:07.564Z,90.54
2023-11-24T11:05:49.307Z,91.90
2023-11-24T11:08:22.460Z,93.35
2023-11-24T11:11:16.418Z,93.60
2023-11-24T11:13:45.191Z,96.22
2023-11-24T11:16:14.465Z,93.59
2023-11-24T11:18:42.241Z,95.26
2023-11-24T11:21:18.290Z,96.64
2023-11-24T11:23:46.062Z,96.48
2023-11-24T11:26:49.747Z,95.67
2023-11-24T11:29:20.903Z,93.62
2023-11-24T11:31:51.754Z,95.63
2023-11-24T11:34:21.859Z,95.03
2023-11-24T11:37:02.540Z,93.61
2023-11-24T11:39:35.516Z,93.05
2023-11-24T11:42:05.588Z,91.19
2023-11-24T11:44:37.703Z,89.93
2023-11-24T11:47:21.892Z,88.51
2023-11-24T11:49:52.616Z,89.84
2023-11-24T11:52:21.913Z,87.48
2023-11-24T11:54:52.245Z,88.13
2023-11-24T11:57:22.758Z,87.40
2023-11-24T11:59:50.854Z,87.13
2023-11-24T12:02:22.654Z,87.14
2023-11-24T12:04:51.603Z,88.49
2023-11-24T12:07:21.697Z,88.13
2023-11-24T12:09:50.619Z,91.15
2023-11-24T12:12:18.921Z,89.87
2023-11-24T12:14:49.666Z,89.37
2023-11-24T12:17:18.275Z,93.00
2023-11-24T12:19:46.507Z,96.35
2023-11-24T12:22:15.341Z,98.18
2023-11-24T12:24:43.218Z,99.13
2023-11-24T12:27:12.680Z,97.31
2023-11-24T12:29:42.116Z,97.69
2023-11-24T12:32:13.207Z,99.02
2023-11-24T12:34:46.505Z,99.56
2023-11-24T12:37:14.769Z,100.00
2023-11-24T12:39:43.058Z,100.00
2023-11-24T12:42:12.167Z,100.00
2023-11-24T12:44:40.925Z,100.00
2023-11-24T12:47:11.450Z,100.00
2023-11-24T12:50:01.906Z,98.39
2023-11-24T12:52:31.523Z,100.00
2023-11-24T12:54:59.133Z,100.00
2023-11-24T12:57:27.632Z,100.00
2023-11-24T12:59:57.351Z,100.00
2023-11-24T13:02:28.677Z,100.00
2023-11-24T13:04:56.626Z,100.00
2023-11-24T13:07:24.418Z,100.00
2023-11-24T13:09:52.080Z,100.00
2023-11-24T13:12:19.849Z,100.00
2023-11-24T13:14:47.523Z,100.00
2023-11-24T13:17:15.204Z,100.00
2023-11-24T13:19:44.494Z,100.00
2023-11-24T13:22:12.319Z,98.50
2023-11-24T13:24:41.385Z,100.00
2023-11-24T13:27:10.760Z,100.00
2023-11-24T13:29:43.309Z,99.17
2023-11-24T13:32:11.065Z,99.73
2023-11-24T13:34:39.908Z,98.68
2023-11-24T13:37:09.132Z,96.59
2023-11-24T13:39:36.985Z,98.57
2023-11-24T13:42:05.494Z,99.21
2023-11-24T13:44:33.952Z,96.15
2023-11-24T13:47:03.160Z,95.25
2023-11-24T13:49:30.856Z,93.21
2023-11-24T13:51:58.560Z,92.42
2023-11-24T13:54:27.523Z,92.48
2023-11-24T13:56:56.329Z,90.48
2023-11-24T13:59:25.988Z,92.85
2023-11-24T14:01:53.794Z,91.98
2023-11-24T14:04:22.793Z,89.41
2023-11-24T14:06:52.975Z,89.64
2023-11-24T14:09:21.998Z,90.83
2023-11-24T14:11:52.522Z,90.36
2023-11-24T14:14:20.910Z,90.09
2023-11-24T14:16:50.798Z,88.09
2023-11-24T14:19:18.506Z,90.24
2023-11-24T14:21:46.292Z,87.94
2023-11-24T14:24:14.790Z,90.41
2023-11-24T14:26:45.455Z,89.88
2023-11-24T14:29:17.433Z,90.25
2023-11-24T14:31:45.133Z,90.85
2023-11-24T14:34:14.104Z,90.81
2023-11-24T14:36:42.355Z,94.17
2023-11-24T14:39:20.954Z,93.33
2023-11-24T14:41:49.051Z,94.72
2023-11-24T14:44:17.974Z,96.74
2023-11-24T14:46:46.158Z,100.00
2023-11-24T14:49:15.183Z,100.00
2023-11-24T14:51:42.783Z,100.00
2023-11-24T14:54:10.402Z,100.00
2023-11-24T14:56:41.107Z,100.00
2023-11-24T14:59:09.935Z,100.00
2023-11-24T15:01:40.262Z,100.00
2023-11-24T15:04:16.760Z,100.00
2023-11-24T15:06:50.920Z,100.00
2023-11-24T15:09:19.865Z,100.00
2023-11-24T15:11:52.997Z,100.00
2023-11-24T15:14:31.962Z,100.00
2023-11-24T15:17:04.858Z,100.00
2023-11-24T15:19:34.408Z,100.00
2023-11-24T15:22:06.185Z,100.00
2023-11-24T15:24:34.398Z,100.00
2023-11-24T15:27:02.343Z,100.00
2023-11-24T15:29:29.950Z,100.00
2023-11-24T15:31:57.635Z,100.00
2023-11-24T15:34:29.124Z,100.00
2023-11-24T15:36:56.867Z,100.00
2023-11-24T15:39:36.047Z,100.00
2023-11-24T15:42:08.045Z,100.00
2023-11-24T15:44:39.267Z,100.00
2023-11-24T15:47:11.051Z,100.00
2023-11-24T15:49:42.469Z,100.00
2023-11-24T15:52:12.366Z,100.00
2023-11-24T15:54:40.215Z,100.00
2023-11-24T15:57:09.837Z,100.00
2023-11-24T15:59:42.757Z,100.00
2023-11-24T16:02:12.995Z,100.00
2023-11-24T16:04:43.794Z,100.00
2023-11-24T16:07:11.915Z,100.00
2023-11-24T16:09:40.780Z,100.00
2023-11-24T16:12:13.637Z,100.00
2023-11-24T16:14:41.744Z,100.00
2023-11-24T16:17:10.115Z,100.00
2023-11-24T16:19:38.043Z,100.00
2023-11-24T16:22:07.278Z,100.00
2023-11-24T16:24:35.065Z,100.00
2023-11-24T16:27:03.813Z,100.00
2023-11-24T16:29:31.698Z,100.00
2023-11-24T16:32:00.579Z,100.00
2023-11-24T16:34:28.820Z,100.00
2023-11-24T16:36:57.566Z,100.00
2023-11-24T16:39:28.487Z,100.00
2023-11-24T16:41:58.188Z,100.00
2023-11-24T16:44:25.978Z,100.00
2023-11-24T16:46:58.398Z,100.00
2023-11-24T16:49:26.433Z,100.00
2023-11-24T16:51:55.096Z,100.00
2023-11-24T16:54:23.022Z,100.00
2023-11-24T16:56:52.092Z,100.00
2023-11-24T16:59:21.578Z,100.00
2023-11-24T17:01:50.390Z,100.00
2023-11-24T17:04:18.233Z,100.00
2023-11-24T17:06:46.462Z,100.00
2023-11-24T17:09:16.267Z,100.00
2023-11-24T17:11:44.595Z,100.00
2023-11-24T17:14:15.210Z,100.00
2023-11-24T17:16:42.976Z,100.00
2023-11-24T17:19:11.079Z,100.00
2023-11-24T17:21:40.509Z,100.00
2023-11-24T17:24:09.242Z,100.00
2023-11-24T17:26:36.975Z,100.00
2023-11-24T17:29:04.917Z,100.00
2023-11-24T17:31:33.969Z,100.00
2023-11-24T17:34:02.273Z,100.00
2023-11-24T17:36:30.144Z,100.00
2023-11-24T17:38:57.944Z,100.00
2023-11-24T17:41:26.331Z,100.00
2023-11-24T17:43:54.189Z,100.00
2023-11-24T17:46:21.884Z,100.00
2023-11-24T17:48:51.035Z,100.00
2023-11-24T17:51:19.276Z,100.00
2023-11-24T17:53:47.009Z,100.00
2023-11-24T17:56:15.066Z,100.00
2023-11-24T17:58:42.693Z,100.00
2023-11-24T18:01:11.491Z,100.00
2023-11-24T18:03:39.144Z,100.00
2023-11-24T18:06:09.895Z,100.00
2023-11-24T18:08:37.462Z,100.00
2023-11-24T18:11:06.096Z,100.00
2023-11-24T18:13:33.828Z,100.00
2023-11-24T18:16:01.543Z,100.00
2023-11-24T18:18:29.200Z,100.00
2023-11-24T18:20:56.964Z,100.00
2023-11-24T18:23:25.929Z,100.00
2023-11-24T18:25:53.554Z,100.00
2023-11-24T18:28:21.259Z,100.00
2023-11-24T18:30:48.939Z,100.00
2023-11-24T18:33:16.712Z,100.00
2023-11-24T18:35:45.263Z,100.00
2023-11-24T18:38:13.136Z,100.00
2023-11-24T18:40:42.076Z,100.00
2023-11-24T18:43:09.847Z,100.00
2023-11-24T18:45:37.455Z,100.00
2023-11-24T18:48:05.818Z,100.00
2023-11-24T18:50:33.465Z,100.00
2023-11-24T18:53:01.092Z,100.00
2023-11-24T18:55:28.771Z,100.00
2023-11-24T18:57:59.161Z,100.00
2023-11-24T19:00:26.901Z,100.00
2023-11-24T19:02:55.130Z,100.00
2023-11-24T19:05:23.529Z,100.00
2023-11-24T19:07:51.078Z,100.00
2023-11-24T19:10:19.552Z,100.00
2023-11-24T19:12:49.757Z,100.00
2023-11-24T19:15:19.090Z,100.00
2023-11-24T19:17:46.796Z,100.00
2023-11-24T19:20:14.794Z,100.00
2023-11-24T19:22:42.394Z,100.00
2023-11-24T19:25:10.728Z,100.00
2023-11-24T19:27:38.362Z,100.00
2023-11-24T19:30:07.057Z,100.00
2023-11-24T19:32:36.138Z,100.00
2023-11-24T19:35:06.060Z,100.00
2023-11-24T19:37:34.977Z,100.00
2023-11-24T19:40:06.457Z,100.00
2023-11-24T19:42:34.290Z,100.00
2023-11-24T19:45:01.996Z,98.73
2023-11-24T19:47:29.983Z,98.20
2023-11-24T19:49:58.871Z,98.88
2023-11-24T19:52:27.131Z,99.30
2023-11-24T19:54:54.824Z,98.10
2023-11-24T19:57:22.781Z,98.45
2023-11-24T19:59:55.759Z,99.67
2023-11-24T20:02:23.552Z,98.29
2023-11-24T20:04:51.400Z,98.76
2023-11-24T20:07:22.138Z,97.89
2023-11-24T20:09:50.572Z,98.18
2023-11-24T20:12:18.134Z,98.92
2023-11-24T20:14:45.787Z,98.57
2023-11-24T20:17:13.783Z,98.72
2023-11-24T20:19:41.450Z,97.45
2023-11-24T20:22:11.255Z,97.79
2023-11-24T20:24:43.315Z,98.63
2023-11-24T20:27:11.051Z,98.46
2023-11-24T20:29:38.718Z,97.24
2023-11-24T20:32:06.965Z,96.97
2023-11-24T20:34:34.694Z,96.94
2023-11-24T20:37:03.030Z,95.80
2023-11-24T20:39:30.877Z,97.05
2023-11-24T20:42:01.560Z,95.96
2023-11-24T20:44:31.993Z,96.48
2023-11-24T20:47:01.023Z,97.35
2023-11-24T20:49:29.286Z,97.47
2023-11-24T20:51:57.989Z,97.13
2023-11-24T20:54:25.595Z,97.90
2023-11-24T20:56:53.202Z,97.06
2023-11-24T20:59:22.471Z,96.44
2023-11-24T21:01:50.235Z,95.79
2023-11-24T21:04:18.240Z,96.84
2023-11-24T21:06:46.945Z,96.34
2023-11-24T21:09:14.829Z,96.80
2023-11-24T21:11:42.514Z,96.92
2023-11-24T21:14:10.118Z,97.66
2023-11-24T21:16:39.220Z,97.38
2023-11-24T21:19:07.760Z,97.53
2023-11-24T21:21:35.564Z,96.97
2023-11-24T21:24:03.571Z,96.65
2023-11-24T21:26:31.202Z,97.34
2023-11-24T21:28:58.820Z,97.58
2023-11-24T21:31:26.384Z,98.51
2023-11-24T21:33:55.654Z,98.66
2023-11-24T21:36:23.268Z,98.63
2023-11-24T21:38:50.892Z,97.77
2023-11-24T21:41:20.504Z,94.82
2023-11-24T21:43:48.844Z,95.40
2023-11-24T21:46:19.951Z,96.19
2023-11-24T21:48:47.856Z,95.10
2023-11-24T21:51:17.785Z,95.53
2023-11-24T21:53:46.095Z,95.05
2023-11-24T21:56:13.992Z,95.69
2023-11-24T21:58:42.639Z,94.92
2023-11-24T22:01:10.352Z,95.56
2023-11-24T22:03:38.224Z,94.29
2023-11-24T22:06:06.556Z,94.42
2023-11-24T22:08:36.593Z,95.99
2023-11-24T22:11:04.237Z,95.99
2023-11-24T22:13:31.818Z,95.19
2023-11-24T22:16:00.105Z,95.17
2023-11-24T22:18:27.857Z,95.98
2023-11-24T22:20:55.761Z,93.91
2023-11-24T22:23:23.564Z,95.18
2023-11-24T22:25:52.553Z,93.86
2023-11-24T22:28:20.264Z,94.18
2023-11-24T22:30:48.398Z,93.81
2023-11-24T22:33:16.125Z,94.09
2023-11-24T22:35:44.089Z,93.99
2023-11-24T22:38:11.712Z,93.80
2023-11-24T22:40:40.235Z,93.55
2023-11-24T22:43:09.225Z,93.74
2023-11-24T22:45:36.834Z,93.36
2023-11-24T22:48:04.718Z,93.73
2023-11-24T22:50:32.248Z,93.35
2023-11-24T22:52:59.833Z,93.11
2023-11-24T22:55:27.502Z,94.09
2023-11-24T22:57:55.654Z,93.47
2023-11-24T23:00:36.899Z,92.26
2023-11-24T23:03:05.129Z,93.30
2023-11-24T23:05:33.036Z,93.44
2023-11-24T23:08:00.831Z,94.10
2023-11-24T23:10:31.709Z,94.58
2023-11-24T23:13:00.703Z,93.59
2023-11-24T23:15:31.442Z,93.49
2023-11-24T23:17:59.136Z,94.12
2023-11-24T23:20:27.248Z,93.76
2023-11-24T23:22:56.130Z,94.03
2023-11-24T23:25:24.446Z,93.12
2023-11-24T23:27:52.106Z,93.88
2023-11-24T23:30:19.725Z,93.92
2023-11-24T23:32:49.944Z,95.43
2023-11-24T23:35:18.616Z,96.12
2023-11-24T23:37:46.503Z,96.36
2023-11-24T23:40:15.644Z,94.37
2023-11-24T23:42:45.569Z,94.56
2023-11-24T23:45:17.183Z,94.33
2023-11-24T23:47:44.918Z,95.11
2023-11-24T23:50:15.677Z,96.63
2023-11-24T23:52:46.064Z,95.63
2023-11-24T23:55:15.278Z,94.71
2023-11-24T23:57:42.924Z,94.95
